Terminal Aerodrome Forecast
Issued by NWS

Home | Current Version | Previous Version | Text Only | Print | Product List | Glossary On
Versions: 1 2 3 4 5 6 7 8 9 10 11 12 13 14 15 16
000
FTAK31 PAJN 011405 AAA
TAFAKT
TAF AMD
PAKT 011405Z 0114/0212 14015G25KT 3SM -RA BR BKN006 OVC010
      WS020/16040KT
      TEMPO 0114/0118 2SM RA BR SCT006 OVC010
     FM011800 14018G30KT 3SM RA BR OVC006 WS020/17045KT
     FM020300 15015G25KT 4SM RA BR BKN008 OVC015 WS020/17035KT
      AMD LTD TO CLD VIS AND WIND 0206/0212=

USA.gov is the U.S. government's official web portal to all federal, state and local government web resources and services.